KNGU/NGU METAR and TAF weather

Enter ICAO airport designator
Station Type Date Time Source
KNGU METAR 2019/09/21 20:59 UTC NOAA

KNGU 212059Z VRB05KT 10SM FEW300 28/16 A3020 RMK AO2 SLP227 ACFT TRAILS T02830161 56013 $


Station Type Date Time Source
KNGU Decoded METAR 2019/09/21 20:59 UTC NOAA

Norfolk, Naval Air Station, VA, United States (KNGU) 36-56-01N 076-17-45W 8M
Sep 21, 2019 - 04:59 PM EDT / 2019.09.21 2059 UTC
Wind: Variable at 6 MPH (5 KT):0
Visibility: 10 mile(s):0
Sky conditions: mostly clear
Temperature: 82.9 F (28.3 C)
Dew Point: 61.0 F (16.1 C)
Relative Humidity: 47%
Pressure (altimeter): 30.2 in. Hg (1022 hPa)
Pressure tendency: 0.04 inches (1.3 hPa) lower than three hours ago
ob: KNGU 212059Z VRB05KT 10SM FEW300 28/16 A3020 RMK AO2 SLP227 ACFT TRAILS T02830161 56013
cycle: 21

Station Type Date Time Source
KNGU TAF 2019/09/21 15:07 UTC NOAA

TAF KNGU 2115/2215 22007KT 9999 FEW250 QNH3024INS
FM212000 18008KT 9999 FEW040 FEW250 QNH3020INS
FM220200 21005KT 9999 FEW250 QNH3019INS
FM221500 22008KT 9999 FEW250 QNH3019INS T26/2119Z T19/2209Z FN00204

Example: see airport list